Airfield :
LOGIN :

Register | Disclaimer

   EN    FR    IT 

 










Legend :    VFR   Marginal VFR   IFR   Intensive IFR   Very Intensive IFR
Visi :
Ceiling :
>= 8 km
>= 3000ft
5 to 8 km
1000 to 3000 ft
1500m to 5 km
500 to 1000 ft
800 to 1500m
200 to 500 ft
< 800m
< 200 ft
Symbols :   Thunderstorms  Fog  Heavy snow  Heavy precipitations  Wind > 20 kt
SIGMETs :     Misc.  Thunderstorms  Icing  Turbulence  Mountain Waves  Volcanic Ashes






- Airport Elevation : 319 ft


EIME - Casement Air Base

CURRENT METAR :
  • 260500Z 21018KT 9999 -RA FEW019 BKN045 BKN100 09/07 Q1000

EXPIRED METARs :
  • 260400Z 21017KT 9999 -RA BKN015 BKN031 09/07 Q1000
  • 260300Z 21020KT 9999 -RA BKN014 BKN190 08/07 Q1001

TAF TAF EIME
Valid from the 26 at 06:00 until the 26 at 15:00 UTC


260500Z 2606/2615 20018G30KT 9999 FEW012 BKN028
BECMG 2606/2608 26016G27KT
TEMPO 2606/2607 5000 RA BKN010
TEMPO 2607/2609 -SHRA BKN015
BECMG 2608/2610 25012KT
PROB40
TEMPO 2612/2615 26015G25KT -SHRA SCT018CB



MET'MAP, your aeronautical weather chart ! - Copyright ORBIFLY December 2007 - Disclaimer

ORBIFLY MET'MAP TEAM :

Programming & Development : Alexandra Zaïnal
Concept & original design : Baudouin d'Aumeries
Assistance for programming : Marc-Olivier Méhu
Technical & hardware support : Manuel Goepfert

Contact : metmap@orbifly.com




SOURCES & CREDITS :

   NOAA